Anguilla, MS

7:21 PM CDT on April 24, 2015 (GMT -0500)
Mid Delta Regional | | Change Station
CLOSE
Current Station
Airport
Location: Greenville,
Elevation: 131 ft
Nearby Weather Stations

Elev 131 ft 33.48 °N, 90.99 °W | Updated 28 minutes ago

Overcast
Overcast
66 °F
Feels Like 66 °F
N
5
Wind Variable Wind from East

Today
High -- | Low -- °F
--% Chance of Precip.
Yesterday
High -- | Low -- °F
Precip. -- in
6:23 AM 7:40 PM
Waxing Crescent, 40% visible
Pressure 29.83 in
Visibility 9.0 miles
Clouds Few 2400 ft
Overcast 11000 ft
Dew Point 62 °F
Humidity 87%
Rainfall 0.00 in
Snow Depth Not available.
UV 0 out of 12
Pollen 1.00 out of 12
Air Quality Not available.
Flu Activity No Activity
METAR KGLH 242353Z AUTO 08004KT 9SM FEW024 OVC110 19/17 A2981 RMK AO2 RAE26 PRESFR SLP102 P0000 60000 T01890167 10194 20178 58012

More Conditions Fewer Conditions

Pressure 29.83 in
Visibility 9.0 miles
Clouds Few 2400 ft
Overcast 11000 ft
Dew Point 62 °F
Humidity 87%
Rainfall 0.00 in
Snow Depth Not available.
UV 0 out of 12
Pollen 1.00 out of 12
Air Quality Not available.
Flu Activity No Activity
METAR KGLH 242353Z AUTO 08004KT 9SM FEW024 OVC110 19/17 A2981 RMK AO2 RAE26 PRESFR SLP102 P0000 60000 T01890167 10194 20178 58012

More Conditions Fewer Conditions

There is an enhanced risk of severe weather for parts of Texas, Louisiana, southern Arkansas, and Kansas. A slight risk of severe weather encompasses a wide area of the Plains and Lower Mississippi Valley as well. This means severe thunderstorms will be capable of producing strong wind, large hail, heavy rain, and the possibility of tornadoes into the evening.

10-Day Weather Forecast

Almanac

Astronomy

Apr. 24, 2015 Rise Set
Actual Time
Civil Twilight
Nautical Twilight
Astronomical Twilight
Moon
Length of Visible Light
Length of Day
Tomorrow will be .
, % of the Moon is Illuminated

Today's Extremes

State Highs State Lows

Community

WunderPhotos

Upload Photos

1,816,515 photos uploaded!

WunderBlogs® & News

Nearby

Air Quality

  Air Quality AQ Index Pollutant
Not available.

Snow Depth

Station Depth Elevation

Earthquake Activity

City Distance Mag. Time & Date
Minimum magnitude displayed is 2.5.

Coastal Water Temperatures

Place Temperature

Stations

Nearby Weather Stations

Station Location Temp. Windchill Dew Point Humidity Wind Precip. Elev Updated Type